createdAt,value
2018-11-14T00:00:27.855Z,99.90
2018-11-14T00:02:57.668Z,99.90
2018-11-14T00:05:26.472Z,99.90
2018-11-14T00:07:55.261Z,99.90
2018-11-14T00:10:24.069Z,99.90
2018-11-14T00:12:52.818Z,99.90
2018-11-14T00:15:22.805Z,99.90
2018-11-14T00:17:51.920Z,99.90
2018-11-14T00:20:20.643Z,99.90
2018-11-14T00:22:50.402Z,99.90
2018-11-14T00:25:19.218Z,99.90
2018-11-14T00:27:48.117Z,99.90
2018-11-14T00:30:24.873Z,99.90
2018-11-14T00:32:53.828Z,99.90
2018-11-14T00:35:22.723Z,99.90
2018-11-14T00:37:51.615Z,99.90
2018-11-14T00:40:20.898Z,99.90
2018-11-14T00:42:49.913Z,99.90
2018-11-14T00:45:19.841Z,99.90
2018-11-14T00:47:51.525Z,99.90
2018-11-14T00:50:21.468Z,99.90
2018-11-14T00:52:50.243Z,99.90
2018-11-14T00:55:21.027Z,99.90
2018-11-14T00:57:50.926Z,99.90
2018-11-14T01:00:21.073Z,99.90
2018-11-14T01:02:49.865Z,99.90
2018-11-14T01:05:19.080Z,99.90
2018-11-14T01:07:47.897Z,99.90
2018-11-14T01:10:18.865Z,99.90
2018-11-14T01:12:48.173Z,99.90
2018-11-14T01:15:19.601Z,99.90
2018-11-14T01:17:48.436Z,99.90
2018-11-14T01:20:18.450Z,99.90
2018-11-14T01:22:47.635Z,99.90
2018-11-14T01:25:17.029Z,99.90
2018-11-14T01:27:46.650Z,99.90
2018-11-14T01:30:19.750Z,99.90
2018-11-14T01:32:50.105Z,99.90
2018-11-14T01:35:19.260Z,99.90
2018-11-14T01:37:48.120Z,99.90
2018-11-14T01:40:22.292Z,99.90
2018-11-14T01:42:52.582Z,99.90
2018-11-14T01:45:21.453Z,99.90
2018-11-14T01:47:50.293Z,99.90
2018-11-14T01:50:19.069Z,99.90
2018-11-14T01:52:47.861Z,99.90
2018-11-14T01:55:18.048Z,99.90
2018-11-14T01:57:46.869Z,99.90
2018-11-14T02:00:21.910Z,99.90
2018-11-14T02:02:50.825Z,99.90
2018-11-14T02:05:19.785Z,99.90
2018-11-14T02:07:48.696Z,99.90
2018-11-14T02:10:18.825Z,99.90
2018-11-14T02:12:47.771Z,99.90
2018-11-14T02:15:19.350Z,99.90
2018-11-14T02:17:48.161Z,99.90
2018-11-14T02:20:17.097Z,99.90
2018-11-14T02:22:46.390Z,99.90
2018-11-14T02:25:15.711Z,99.90
2018-11-14T02:27:44.527Z,99.90
2018-11-14T02:30:16.957Z,99.90
2018-11-14T02:32:45.744Z,99.90
2018-11-14T02:35:14.456Z,99.90
2018-11-14T02:37:44.008Z,99.90
2018-11-14T02:40:14.338Z,99.90
2018-11-14T02:42:43.096Z,99.90
2018-11-14T02:45:12.305Z,99.90
2018-11-14T02:47:41.045Z,99.90
2018-11-14T02:50:11.867Z,99.90
2018-11-14T02:52:40.748Z,99.90
2018-11-14T02:55:11.465Z,99.90
2018-11-14T02:57:40.468Z,99.90
2018-11-14T03:00:16.604Z,99.90
2018-11-14T03:02:47.172Z,99.90
2018-11-14T03:05:16.095Z,99.90
2018-11-14T03:07:44.855Z,99.90
2018-11-14T03:10:16.328Z,99.90
2018-11-14T03:12:45.110Z,99.90
2018-11-14T03:15:17.069Z,99.90
2018-11-14T03:17:45.888Z,99.90
2018-11-14T03:20:15.884Z,99.90
2018-11-14T03:22:44.613Z,99.90
2018-11-14T03:25:13.788Z,99.90
2018-11-14T03:27:42.493Z,99.90
2018-11-14T03:30:13.631Z,99.90
2018-11-14T03:32:43.158Z,99.90
2018-11-14T03:35:12.726Z,99.90
2018-11-14T03:37:41.519Z,99.90
2018-11-14T03:40:12.854Z,99.90
2018-11-14T03:42:41.726Z,99.90
2018-11-14T03:45:11.868Z,99.90
2018-11-14T03:47:41.448Z,99.90
2018-11-14T03:50:10.695Z,99.90
2018-11-14T03:52:39.473Z,99.90
2018-11-14T03:55:08.256Z,99.90
2018-11-14T03:57:37.052Z,99.90
2018-11-14T04:00:09.775Z,99.90
2018-11-14T04:02:38.507Z,99.90
2018-11-14T04:05:08.032Z,99.90
2018-11-14T04:07:36.813Z,99.90
2018-11-14T04:10:07.606Z,99.90
2018-11-14T04:12:36.411Z,99.90
2018-11-14T04:15:06.658Z,99.90
2018-11-14T04:17:35.893Z,99.90
2018-11-14T04:20:05.935Z,99.90
2018-11-14T04:22:34.708Z,99.90
2018-11-14T04:25:03.486Z,99.90
2018-11-14T04:27:32.254Z,99.90
2018-11-14T04:30:00.982Z,99.90
2018-11-14T04:32:29.726Z,99.90
2018-11-14T04:34:58.485Z,99.90
2018-11-14T04:37:27.248Z,99.90
2018-11-14T04:39:56.038Z,99.90
2018-11-14T04:42:24.776Z,99.90
2018-11-14T04:44:53.488Z,99.90
2018-11-14T04:47:22.228Z,99.90
2018-11-14T04:49:51.001Z,99.90
2018-11-14T04:52:19.693Z,99.90
2018-11-14T04:54:48.405Z,99.90
2018-11-14T04:57:17.108Z,99.90
2018-11-14T04:59:45.828Z,99.90
2018-11-14T05:02:14.580Z,99.90
2018-11-14T05:04:43.343Z,99.90
2018-11-14T05:07:12.540Z,99.90
2018-11-14T05:09:41.318Z,99.90
2018-11-14T05:12:10.088Z,99.90
2018-11-14T05:14:38.840Z,99.90
2018-11-14T05:17:07.673Z,99.90
2018-11-14T05:19:36.419Z,99.90
2018-11-14T05:22:05.556Z,99.90
2018-11-14T05:24:34.454Z,99.90
2018-11-14T05:27:03.035Z,99.90
2018-11-14T05:29:31.743Z,99.90
2018-11-14T05:32:00.470Z,99.90
2018-11-14T05:34:29.228Z,99.90
2018-11-14T05:36:57.953Z,99.90
2018-11-14T05:39:26.758Z,99.90
2018-11-14T05:41:55.592Z,99.90
2018-11-14T05:44:24.388Z,99.90
2018-11-14T05:46:53.171Z,99.90
2018-11-14T05:49:21.966Z,99.90
2018-11-14T05:51:50.741Z,99.90
2018-11-14T05:54:19.483Z,99.90
2018-11-14T05:56:48.201Z,99.90
2018-11-14T05:59:16.936Z,99.90
2018-11-14T06:01:45.675Z,99.90
2018-11-14T06:04:14.455Z,99.90
2018-11-14T06:06:43.232Z,99.90
2018-11-14T06:09:13.328Z,99.90
2018-11-14T06:11:42.293Z,99.90
2018-11-14T06:14:11.074Z,99.90
2018-11-14T06:16:39.833Z,99.90
2018-11-14T06:19:08.643Z,99.90
2018-11-14T06:21:37.486Z,99.90
2018-11-14T06:24:06.310Z,99.90
2018-11-14T06:26:35.088Z,99.90
2018-11-14T06:29:03.893Z,99.90
2018-11-14T06:31:32.648Z,99.90
2018-11-14T06:34:01.377Z,99.90
2018-11-14T06:36:30.153Z,99.90
2018-11-14T06:38:58.916Z,99.90
2018-11-14T06:41:27.735Z,99.90
2018-11-14T06:43:56.600Z,99.90
2018-11-14T06:46:25.390Z,99.90
2018-11-14T06:48:54.156Z,99.90
2018-11-14T06:51:22.953Z,99.90
2018-11-14T06:53:51.743Z,99.90
2018-11-14T06:56:20.524Z,99.90
2018-11-14T06:58:49.285Z,99.90
2018-11-14T07:01:17.993Z,99.90
2018-11-14T07:03:46.696Z,99.90
2018-11-14T07:06:15.455Z,99.90
2018-11-14T07:08:44.135Z,99.90
2018-11-14T07:11:12.925Z,99.90
2018-11-14T07:13:41.553Z,99.90
2018-11-14T07:16:10.268Z,99.90
2018-11-14T07:18:38.964Z,99.90
2018-11-14T07:21:08.230Z,99.90
2018-11-14T07:23:36.969Z,99.90
2018-11-14T07:26:05.824Z,99.90
2018-11-14T07:28:34.556Z,99.90
2018-11-14T07:31:03.336Z,99.90
2018-11-14T07:33:32.074Z,99.90
2018-11-14T07:36:00.886Z,99.90
2018-11-14T07:38:35.730Z,99.90
2018-11-14T07:41:06.614Z,99.90
2018-11-14T07:43:36.304Z,99.90
2018-11-14T07:46:05.771Z,99.90
2018-11-14T07:48:34.896Z,99.90
2018-11-14T07:51:03.870Z,99.90
2018-11-14T07:53:33.119Z,99.90
2018-11-14T07:56:01.974Z,99.90
2018-11-14T07:58:31.656Z,99.90
2018-11-14T08:01:00.633Z,99.90
2018-11-14T08:03:29.776Z,99.90
2018-11-14T08:05:58.598Z,99.90
2018-11-14T08:08:27.394Z,99.90
2018-11-14T08:10:56.174Z,99.90
2018-11-14T08:13:26.096Z,99.90
2018-11-14T08:15:56.816Z,99.90
2018-11-14T08:18:26.044Z,99.90
2018-11-14T08:20:55.373Z,99.90
2018-11-14T08:23:24.143Z,99.90
2018-11-14T08:25:52.982Z,99.90
2018-11-14T08:28:22.191Z,99.90
2018-11-14T08:30:51.030Z,99.90
2018-11-14T08:33:19.725Z,99.90
2018-11-14T08:35:48.466Z,99.90
2018-11-14T08:38:17.161Z,99.90
2018-11-14T08:40:45.909Z,99.90
2018-11-14T08:43:14.709Z,99.90
2018-11-14T08:45:43.489Z,99.90
2018-11-14T08:48:12.834Z,99.90
2018-11-14T08:50:41.616Z,99.90
2018-11-14T08:53:11.221Z,99.90
2018-11-14T08:55:39.922Z,99.90
2018-11-14T08:58:10.175Z,99.90
2018-11-14T09:00:39.041Z,99.90
2018-11-14T09:03:09.663Z,99.90
2018-11-14T09:05:38.472Z,99.90
2018-11-14T09:08:07.274Z,99.90
2018-11-14T09:10:36.023Z,99.90
2018-11-14T09:13:04.925Z,99.90
2018-11-14T09:15:33.496Z,99.90
2018-11-14T09:18:02.250Z,99.90
2018-11-14T09:20:30.956Z,99.90
2018-11-14T09:22:59.674Z,99.90
2018-11-14T09:25:31.103Z,99.90
2018-11-14T09:28:01.096Z,99.90
2018-11-14T09:30:29.941Z,99.90
2018-11-14T09:32:58.694Z,99.30
2018-11-14T09:35:27.885Z,96.20
2018-11-14T09:37:57.981Z,98.50
2018-11-14T09:40:27.695Z,93.50
2018-11-14T09:42:56.483Z,91.20
2018-11-14T09:45:26.388Z,87.20
2018-11-14T09:47:55.148Z,84.30
2018-11-14T09:50:26.116Z,85.20
2018-11-14T09:52:57.077Z,82.10
2018-11-14T09:55:25.898Z,80.00
2018-11-14T09:57:54.713Z,80.10
2018-11-14T10:00:25.603Z,79.30
2018-11-14T10:03:00.802Z,76.50
2018-11-14T10:05:29.634Z,75.90
2018-11-14T10:07:58.556Z,73.40
2018-11-14T10:10:27.375Z,72.80
2018-11-14T10:12:56.182Z,71.20
2018-11-14T10:15:24.966Z,72.30
2018-11-14T10:17:53.753Z,70.70
2018-11-14T10:20:23.568Z,70.30
2018-11-14T10:22:52.520Z,69.90
2018-11-14T10:25:21.317Z,67.10
2018-11-14T10:27:50.480Z,67.60
2018-11-14T10:30:27.057Z,66.50
2018-11-14T10:32:55.858Z,65.90
2018-11-14T10:35:24.743Z,64.70
2018-11-14T10:37:53.470Z,64.60
2018-11-14T10:40:26.599Z,64.50
2018-11-14T10:42:55.499Z,64.20
2018-11-14T10:45:25.167Z,62.60
2018-11-14T10:47:53.954Z,62.10
2018-11-14T10:50:24.060Z,63.00
2018-11-14T10:52:52.812Z,62.50
2018-11-14T10:55:22.001Z,58.00
2018-11-14T10:57:51.235Z,59.50
2018-11-14T11:00:29.157Z,59.70
2018-11-14T11:03:04.948Z,55.60
2018-11-14T11:05:44.044Z,54.30
2018-11-14T11:08:19.737Z,55.80
2018-11-14T11:10:54.258Z,53.30
2018-11-14T11:13:28.623Z,53.20
2018-11-14T11:16:02.898Z,54.10
2018-11-14T11:18:33.127Z,54.20
2018-11-14T11:21:02.069Z,56.10
2018-11-14T11:23:30.868Z,54.60
2018-11-14T11:25:59.681Z,55.50
2018-11-14T11:28:28.565Z,54.90
2018-11-14T11:30:57.418Z,54.50
2018-11-14T11:33:26.229Z,54.90
2018-11-14T11:35:55.077Z,55.00
2018-11-14T11:38:24.078Z,56.90
2018-11-14T11:40:52.727Z,54.90
2018-11-14T11:43:21.515Z,54.80
2018-11-14T11:45:50.190Z,54.50
2018-11-14T11:48:19.218Z,53.10
2018-11-14T11:50:47.917Z,56.40
2018-11-14T11:53:17.255Z,54.60
2018-11-14T11:55:45.940Z,55.50
2018-11-14T11:58:15.645Z,55.80
2018-11-14T12:00:44.435Z,55.10
2018-11-14T12:03:13.218Z,54.10
2018-11-14T12:05:42.832Z,55.80
2018-11-14T12:08:11.663Z,54.30
2018-11-14T12:10:40.413Z,52.50
2018-11-14T12:13:09.805Z,53.70
2018-11-14T12:15:38.558Z,55.10
2018-11-14T12:18:07.483Z,51.70
2018-11-14T12:20:36.295Z,54.40
2018-11-14T12:23:06.288Z,54.30
2018-11-14T12:25:35.078Z,54.00
2018-11-14T12:28:03.921Z,51.60
2018-11-14T12:30:32.774Z,52.50
2018-11-14T12:33:01.416Z,52.30
2018-11-14T12:35:30.229Z,50.90
2018-11-14T12:37:58.960Z,51.70
2018-11-14T12:40:28.193Z,50.00
2018-11-14T12:42:57.049Z,51.60
2018-11-14T12:45:26.821Z,51.00
2018-11-14T12:47:55.637Z,50.10
2018-11-14T12:50:24.473Z,50.40
2018-11-14T12:52:53.461Z,51.50
2018-11-14T12:55:22.320Z,50.50
2018-11-14T12:57:51.065Z,49.20
2018-11-14T13:00:20.645Z,49.70
2018-11-14T13:02:49.484Z,49.70
2018-11-14T13:05:18.280Z,48.90
2018-11-14T13:07:47.221Z,49.90
2018-11-14T13:10:17.329Z,49.90
2018-11-14T13:12:47.207Z,49.10
2018-11-14T13:15:17.343Z,50.90
2018-11-14T13:17:46.225Z,51.30
2018-11-14T13:20:18.807Z,49.50
2018-11-14T13:22:47.743Z,51.90
2018-11-14T13:25:16.705Z,52.10
2018-11-14T13:27:46.691Z,51.80
2018-11-14T13:30:21.793Z,49.90
2018-11-14T13:32:51.789Z,51.00
2018-11-14T13:35:21.524Z,51.10
2018-11-14T13:37:50.959Z,52.50
2018-11-14T13:40:19.733Z,52.40
2018-11-14T13:42:48.485Z,53.40
2018-11-14T13:45:17.921Z,54.20
2018-11-14T13:47:46.674Z,53.40
2018-11-14T13:50:19.237Z,54.00
2018-11-14T13:52:47.923Z,54.50
2018-11-14T13:55:17.936Z,54.60
2018-11-14T13:57:47.926Z,55.50
2018-11-14T14:00:17.890Z,55.90
2018-11-14T14:02:47.228Z,55.50
2018-11-14T14:05:17.567Z,56.20
2018-11-14T14:07:46.355Z,55.50
2018-11-14T14:10:15.833Z,56.70
2018-11-14T14:12:45.961Z,58.20
2018-11-14T14:15:18.609Z,59.10
2018-11-14T14:17:47.966Z,60.30
2018-11-14T14:20:17.562Z,61.90
2018-11-14T14:22:46.411Z,64.20
2018-11-14T14:25:16.456Z,66.50
2018-11-14T14:27:45.240Z,69.00
2018-11-14T14:30:15.283Z,69.90
2018-11-14T14:32:44.668Z,71.00
2018-11-14T14:35:14.673Z,72.30
2018-11-14T14:37:43.473Z,73.30
2018-11-14T14:40:14.425Z,74.30
2018-11-14T14:42:43.501Z,75.60
2018-11-14T14:45:13.743Z,75.50
2018-11-14T14:47:42.598Z,76.60
2018-11-14T14:50:13.578Z,77.20
2018-11-14T14:52:43.253Z,77.30
2018-11-14T14:55:15.409Z,78.00
2018-11-14T14:57:45.038Z,78.40
2018-11-14T15:00:16.189Z,79.30
2018-11-14T15:02:44.948Z,80.00
2018-11-14T15:05:14.189Z,80.90
2018-11-14T15:07:43.026Z,81.90
2018-11-14T15:10:16.910Z,82.50
2018-11-14T15:12:45.653Z,83.10
2018-11-14T15:15:15.036Z,83.70
2018-11-14T15:17:44.125Z,84.30
2018-11-14T15:20:16.770Z,84.90
2018-11-14T15:22:45.709Z,85.20
2018-11-14T15:25:15.656Z,85.60
2018-11-14T15:27:45.126Z,86.00
2018-11-14T15:30:18.021Z,86.40
2018-11-14T15:32:46.756Z,87.10
2018-11-14T15:35:15.742Z,87.70
2018-11-14T15:37:44.669Z,88.10
2018-11-14T15:40:14.988Z,88.50
2018-11-14T15:42:43.949Z,89.10
2018-11-14T15:45:15.148Z,89.40
2018-11-14T15:47:44.981Z,89.80
2018-11-14T15:50:18.253Z,90.10
2018-11-14T15:52:47.940Z,90.40
2018-11-14T15:55:18.106Z,90.60
2018-11-14T15:57:46.937Z,90.80
2018-11-14T16:00:22.043Z,91.40
2018-11-14T16:02:50.864Z,91.60
2018-11-14T16:05:21.159Z,91.90
2018-11-14T16:07:51.134Z,92.40
2018-11-14T16:10:21.310Z,93.70
2018-11-14T16:12:50.106Z,93.40
2018-11-14T16:15:27.133Z,93.80
2018-11-14T16:17:55.997Z,93.80
2018-11-14T16:20:25.510Z,94.50
2018-11-14T16:22:54.456Z,94.70
2018-11-14T16:25:25.229Z,94.90
2018-11-14T16:27:56.468Z,94.80
2018-11-14T16:30:26.965Z,94.70
2018-11-14T16:32:58.160Z,94.70
2018-11-14T16:35:27.235Z,94.80
2018-11-14T16:37:56.139Z,94.80
2018-11-14T16:40:26.345Z,95.10
2018-11-14T16:42:56.057Z,94.90
2018-11-14T16:45:24.953Z,95.00
2018-11-14T16:47:53.789Z,94.70
2018-11-14T16:50:23.140Z,94.90
2018-11-14T16:52:51.968Z,95.50
2018-11-14T16:55:21.366Z,95.50
2018-11-14T16:57:51.632Z,95.80
2018-11-14T17:00:28.248Z,96.30
2018-11-14T17:02:57.101Z,96.30
2018-11-14T17:05:27.047Z,96.80
2018-11-14T17:07:55.798Z,97.20
2018-11-14T17:10:24.809Z,97.30
2018-11-14T17:12:55.120Z,97.00
2018-11-14T17:15:24.888Z,96.90
2018-11-14T17:17:53.808Z,98.10
2018-11-14T17:20:23.444Z,97.70
2018-11-14T17:22:53.867Z,97.50
2018-11-14T17:25:22.902Z,97.10
2018-11-14T17:27:51.711Z,97.40
2018-11-14T17:30:22.675Z,98.40
2018-11-14T17:32:52.981Z,98.40
2018-11-14T17:35:21.840Z,98.50
2018-11-14T17:37:50.615Z,99.30
2018-11-14T17:40:22.373Z,99.60
2018-11-14T17:42:52.045Z,99.30
2018-11-14T17:45:24.540Z,99.40
2018-11-14T17:47:53.860Z,99.50
2018-11-14T17:50:26.882Z,99.80
2018-11-14T17:52:56.458Z,99.90
2018-11-14T17:55:25.876Z,99.90
2018-11-14T17:57:54.715Z,99.90
2018-11-14T18:00:24.797Z,99.90
2018-11-14T18:02:54.723Z,99.90
2018-11-14T18:05:25.615Z,99.90
2018-11-14T18:07:54.978Z,99.80
2018-11-14T18:10:25.926Z,99.50
2018-11-14T18:12:55.824Z,99.50
2018-11-14T18:15:24.691Z,99.90
2018-11-14T18:17:54.171Z,99.90
2018-11-14T18:20:25.473Z,99.90
2018-11-14T18:22:54.478Z,99.90
2018-11-14T18:25:23.346Z,99.90
2018-11-14T18:27:52.411Z,99.90
2018-11-14T18:30:22.494Z,99.90
2018-11-14T18:32:52.305Z,99.90
2018-11-14T18:35:21.763Z,99.90
2018-11-14T18:37:51.478Z,99.90
2018-11-14T18:40:21.533Z,99.90
2018-11-14T18:42:50.366Z,99.90
2018-11-14T18:45:23.181Z,99.90
2018-11-14T18:47:52.426Z,99.90
2018-11-14T18:50:21.792Z,99.90
2018-11-14T18:52:51.176Z,99.90
2018-11-14T18:55:21.273Z,99.90
2018-11-14T18:57:50.373Z,99.90
2018-11-14T19:00:22.301Z,99.80
2018-11-14T19:02:51.113Z,99.90
2018-11-14T19:05:20.323Z,99.20
2018-11-14T19:07:49.293Z,98.90
2018-11-14T19:10:20.473Z,99.30
2018-11-14T19:12:50.074Z,99.00
2018-11-14T19:15:22.075Z,99.00
2018-11-14T19:17:50.945Z,98.80
2018-11-14T19:20:23.115Z,98.70
2018-11-14T19:22:52.491Z,97.60
2018-11-14T19:25:23.501Z,97.60
2018-11-14T19:27:52.293Z,97.30
2018-11-14T19:30:22.666Z,97.30
2018-11-14T19:32:52.264Z,97.20
2018-11-14T19:35:21.278Z,97.00
2018-11-14T19:37:51.080Z,97.10
2018-11-14T19:40:21.615Z,97.40
2018-11-14T19:42:52.655Z,97.50
2018-11-14T19:45:22.996Z,97.60
2018-11-14T19:47:51.798Z,98.10
2018-11-14T19:50:22.277Z,96.70
2018-11-14T19:52:51.526Z,96.80
2018-11-14T19:55:23.143Z,97.30
2018-11-14T19:57:53.514Z,97.50
2018-11-14T20:00:24.877Z,99.20
2018-11-14T20:02:53.850Z,98.60
2018-11-14T20:05:22.882Z,98.20
2018-11-14T20:07:51.701Z,98.00
2018-11-14T20:10:22.340Z,97.00
2018-11-14T20:12:51.736Z,97.30
2018-11-14T20:15:23.826Z,98.40
2018-11-14T20:17:53.528Z,98.30
2018-11-14T20:20:24.614Z,98.10
2018-11-14T20:22:53.562Z,98.20
2018-11-14T20:25:22.589Z,98.50
2018-11-14T20:27:51.467Z,98.80
2018-11-14T20:30:21.625Z,99.10
2018-11-14T20:32:52.221Z,99.60
2018-11-14T20:35:21.964Z,99.90
2018-11-14T20:37:52.563Z,99.90
2018-11-14T20:40:23.171Z,99.90
2018-11-14T20:42:52.795Z,99.90
2018-11-14T20:45:23.456Z,99.90
2018-11-14T20:47:52.481Z,99.90
2018-11-14T20:50:22.576Z,99.90
2018-11-14T20:53:04.705Z,99.90
2018-11-14T20:55:34.607Z,99.90
2018-11-14T20:58:05.376Z,99.90
2018-11-14T21:00:35.650Z,99.90
2018-11-14T21:03:05.344Z,99.90
2018-11-14T21:05:34.098Z,99.90
2018-11-14T21:08:02.913Z,99.90
2018-11-14T21:10:33.854Z,99.90
2018-11-14T21:13:03.426Z,99.90
2018-11-14T21:15:34.599Z,99.90
2018-11-14T21:18:03.859Z,99.90
2018-11-14T21:20:32.644Z,99.90
2018-11-14T21:23:02.674Z,99.90
2018-11-14T21:25:31.803Z,99.90
2018-11-14T21:28:00.703Z,99.90
2018-11-14T21:30:30.181Z,99.90
2018-11-14T21:32:59.094Z,99.90
2018-11-14T21:35:30.669Z,99.90
2018-11-14T21:38:00.789Z,99.90
2018-11-14T21:40:29.747Z,99.90
2018-11-14T21:42:58.718Z,99.90
2018-11-14T21:45:28.348Z,99.90
2018-11-14T21:48:03.290Z,99.90
2018-11-14T21:50:32.813Z,99.90
2018-11-14T21:53:01.738Z,99.90
2018-11-14T21:55:30.561Z,99.90
2018-11-14T21:57:59.460Z,99.90
2018-11-14T22:00:32.253Z,99.90
2018-11-14T22:03:01.563Z,99.90
2018-11-14T22:05:30.506Z,99.90
2018-11-14T22:07:59.690Z,99.90
2018-11-14T22:10:28.735Z,99.90
2018-11-14T22:12:57.666Z,99.90
2018-11-14T22:15:28.703Z,99.90
2018-11-14T22:17:57.583Z,99.90
2018-11-14T22:20:27.676Z,99.90
2018-11-14T22:22:56.473Z,99.90
2018-11-14T22:25:26.605Z,99.90
2018-11-14T22:27:55.606Z,99.90
2018-11-14T22:30:26.901Z,99.90
2018-11-14T22:32:55.705Z,99.90
2018-11-14T22:35:26.091Z,99.90
2018-11-14T22:37:54.867Z,99.90
2018-11-14T22:40:25.013Z,99.90
2018-11-14T22:42:53.987Z,99.90
2018-11-14T22:45:24.133Z,99.90
2018-11-14T22:47:53.565Z,99.90
2018-11-14T22:50:23.463Z,99.90
2018-11-14T22:52:52.741Z,99.90
2018-11-14T22:55:22.660Z,99.90
2018-11-14T22:57:51.825Z,99.90
2018-11-14T23:00:23.963Z,99.90
2018-11-14T23:02:53.933Z,99.90
2018-11-14T23:05:22.734Z,99.90
2018-11-14T23:07:53.375Z,99.90
2018-11-14T23:10:23.383Z,99.90
2018-11-14T23:12:52.360Z,99.90
2018-11-14T23:15:21.847Z,99.90
2018-11-14T23:17:50.740Z,99.90
2018-11-14T23:20:19.695Z,99.90
2018-11-14T23:22:49.815Z,99.90
2018-11-14T23:25:19.160Z,99.90
2018-11-14T23:27:49.161Z,99.90
2018-11-14T23:30:18.883Z,99.90
2018-11-14T23:32:48.795Z,99.90
2018-11-14T23:35:22.628Z,99.90
2018-11-14T23:37:54.690Z,99.90
2018-11-14T23:40:23.628Z,99.90
2018-11-14T23:42:52.430Z,99.90
2018-11-14T23:45:22.225Z,99.90
2018-11-14T23:47:51.140Z,99.90
2018-11-14T23:50:21.176Z,99.90
2018-11-14T23:52:50.967Z,99.90
2018-11-14T23:55:20.589Z,99.90
2018-11-14T23:57:49.446Z,99.90
